createdAt,value
2023-04-22T08:32:37.616Z,9.05
2023-04-22T08:35:05.612Z,13.10
2023-04-22T08:37:32.648Z,12.93
2023-04-22T08:39:59.514Z,12.18
2023-04-22T08:42:27.558Z,11.02
2023-04-22T08:44:54.915Z,9.88
2023-04-22T08:47:22.112Z,14.73
2023-04-22T08:49:51.349Z,11.95
2023-04-22T08:52:18.633Z,8.90
2023-04-22T08:54:45.538Z,9.25
2023-04-22T08:57:12.593Z,11.27
2023-04-22T08:59:40.641Z,7.93
2023-04-22T09:02:08.909Z,8.25
2023-04-22T09:04:36.574Z,9.40
2023-04-22T09:07:04.191Z,10.32
2023-04-22T09:09:32.308Z,11.98
2023-04-22T09:11:59.180Z,8.40
2023-04-22T09:14:26.952Z,8.40
2023-04-22T09:16:53.937Z,10.27
2023-04-22T09:19:24.217Z,8.30
2023-04-22T09:21:53.695Z,10.52
2023-04-22T09:24:21.238Z,10.48
2023-04-22T09:26:48.090Z,9.13
2023-04-22T09:29:16.037Z,12.35
2023-04-22T09:31:43.091Z,12.80
2023-04-22T09:34:09.952Z,8.48
2023-04-22T09:36:39.695Z,11.38
2023-04-22T09:39:09.770Z,9.27
2023-04-22T09:41:38.968Z,12.25
2023-04-22T09:44:11.065Z,8.88
2023-04-22T09:46:38.003Z,8.13
2023-04-22T09:49:04.840Z,7.32
2023-04-22T09:51:32.266Z,7.70
2023-04-22T09:54:09.180Z,8.07
2023-04-22T09:56:48.611Z,12.90
2023-04-22T09:59:26.216Z,11.10
2023-04-22T10:01:55.424Z,9.48
2023-04-22T10:04:23.489Z,8.75
2023-04-22T10:06:51.305Z,9.73
2023-04-22T10:09:20.217Z,10.27
2023-04-22T10:11:48.249Z,9.70
2023-04-22T10:14:15.359Z,7.55
2023-04-22T10:16:45.436Z,9.07
2023-04-22T10:19:18.097Z,8.35
2023-04-22T10:25:21.954Z,7.20
2023-04-22T10:28:02.097Z,10.27
2023-04-22T10:30:33.971Z,9.45
2023-04-22T10:33:27.870Z,8.43
2023-04-22T10:36:20.259Z,10.25
2023-04-22T10:38:50.155Z,7.93
2023-04-22T10:41:17.462Z,7.70
2023-04-22T10:43:48.706Z,10.70
2023-04-22T10:46:30.959Z,8.35
2023-04-22T10:48:58.081Z,7.18
2023-04-22T10:51:44.472Z,9.55
2023-04-22T10:54:28.768Z,9.90
2023-04-22T10:57:14.690Z,10.15
2023-04-22T10:59:56.087Z,12.85
2023-04-22T11:02:23.968Z,10.77
2023-04-22T11:04:54.673Z,8.10
2023-04-22T11:07:31.991Z,6.82
2023-04-22T11:10:09.914Z,5.00
2023-04-22T11:12:39.464Z,5.65
2023-04-22T11:15:10.414Z,5.60
2023-04-22T11:17:38.482Z,7.85
2023-04-22T11:20:06.726Z,6.50
2023-04-22T11:22:38.604Z,8.18
2023-04-22T11:25:06.597Z,6.95
2023-04-22T11:27:34.479Z,5.78
2023-04-22T11:30:08.410Z,6.55
2023-04-22T11:32:43.412Z,7.65
2023-04-22T11:35:12.334Z,7.88
2023-04-22T11:37:49.355Z,6.75
2023-04-22T11:40:30.116Z,6.13
2023-04-22T11:43:02.567Z,7.97
2023-04-22T11:45:30.949Z,5.55
2023-04-22T11:47:58.105Z,7.50
2023-04-22T11:50:27.570Z,8.02
2023-04-22T11:52:58.763Z,5.38
2023-04-22T11:55:31.963Z,4.97
2023-04-22T11:58:17.736Z,8.85
2023-04-22T12:00:46.834Z,5.03
2023-04-22T12:03:18.074Z,6.20
2023-04-22T12:05:46.691Z,7.57
2023-04-22T12:08:18.939Z,5.53
2023-04-22T12:10:46.764Z,6.63
2023-04-22T12:13:21.660Z,5.65
2023-04-22T12:15:49.337Z,5.00
2023-04-22T12:18:16.217Z,5.13
2023-04-22T12:20:43.104Z,8.63
2023-04-22T12:23:14.702Z,10.25
2023-04-22T12:25:42.235Z,7.53
2023-04-22T12:28:09.127Z,6.97
2023-04-22T12:30:36.094Z,7.30
2023-04-22T12:33:03.080Z,5.05
2023-04-22T12:35:29.900Z,5.05
2023-04-22T12:37:56.739Z,6.13
2023-04-22T12:40:23.857Z,8.32
2023-04-22T12:42:50.711Z,5.80
2023-04-22T12:45:17.631Z,5.45
2023-04-22T12:47:45.451Z,4.93
